Cambridge, Minnesota
Current Conditions -  °F | °C
As of 2:16 PM on Wednesday 26 Nov 2014 (Local Time) from KCBG Reporting Station
Broken Clouds Broken Clouds  
Wind Chill: -7°   Ceiling: 2500
Heat Index: -3°   Visibility: 10mi
Dew Point: -9°   Wind: 7mph
Humidity: 64%   Direction: 340°NNW
Pressure: 30.2"   Gusts: NA
Location:  45.57°N, 93.22°W
Report Text: KCBG 262016Z AUTO 34006KT 10SM BKN025 BKN110 M03/M09 A3020 RMK AO2
Loading
Personal Weather Stations






























Interactive Weather Map New forecast layout! Learn more

10-Day Weather Forecast

Advertisements
Track Severe Weather on mobile